createdAt,value
2023-06-24T00:00:17.753Z,406.00
2023-06-24T00:01:17.847Z,405.00
2023-06-24T00:02:17.831Z,407.00
2023-06-24T00:03:17.959Z,406.00
2023-06-24T00:04:17.908Z,406.00
2023-06-24T00:05:17.935Z,407.00
2023-06-24T00:06:17.997Z,407.00
2023-06-24T00:07:18.157Z,406.00
2023-06-24T00:08:18.112Z,405.00
2023-06-24T00:09:18.137Z,402.00
2023-06-24T00:10:18.595Z,401.00
2023-06-24T00:11:18.235Z,401.00
2023-06-24T00:12:18.298Z,399.00
2023-06-24T00:13:18.322Z,398.00
2023-06-24T00:14:18.371Z,397.00
2023-06-24T00:15:18.397Z,398.00
2023-06-24T00:16:18.424Z,397.00
2023-06-24T00:17:18.470Z,401.00
2023-06-24T00:18:18.528Z,403.00
2023-06-24T00:19:18.567Z,406.00
2023-06-24T00:20:18.597Z,406.00
2023-06-24T00:21:18.636Z,408.00
2023-06-24T00:22:18.664Z,411.00
2023-06-24T00:23:18.701Z,414.00
2023-06-24T00:24:18.799Z,418.00
2023-06-24T00:25:18.858Z,418.00
2023-06-24T00:26:18.951Z,418.00
2023-06-24T00:27:18.906Z,418.00
2023-06-24T00:28:18.960Z,419.00
2023-06-24T00:29:19.008Z,421.00
2023-06-24T00:30:19.095Z,422.00
2023-06-24T00:31:19.128Z,421.00
2023-06-24T00:32:19.187Z,420.00
2023-06-24T00:33:19.249Z,420.00
2023-06-24T00:34:19.279Z,422.00
2023-06-24T00:35:19.410Z,422.00
2023-06-24T00:36:19.397Z,422.00
2023-06-24T00:37:19.468Z,420.00
2023-06-24T00:38:19.497Z,417.00
2023-06-24T00:39:19.550Z,418.00
2023-06-24T00:40:19.606Z,416.00
2023-06-24T00:41:19.717Z,417.00
2023-06-24T00:42:19.748Z,416.00
2023-06-24T00:43:19.833Z,416.00
2023-06-24T00:44:19.899Z,416.00
2023-06-24T00:45:19.966Z,417.00
2023-06-24T00:46:20.004Z,415.00
2023-06-24T00:47:20.134Z,416.00
2023-06-24T00:48:20.139Z,416.00
2023-06-24T00:49:20.198Z,417.00
2023-06-24T00:50:20.269Z,416.00
2023-06-24T00:51:20.341Z,417.00
2023-06-24T00:52:20.408Z,414.00
2023-06-24T00:53:20.418Z,413.00
2023-06-24T00:54:20.512Z,412.00
2023-06-24T00:55:20.596Z,410.00
2023-06-24T00:56:20.636Z,413.00
2023-06-24T00:57:20.705Z,412.00
2023-06-24T00:58:20.760Z,402.00
2023-06-24T00:59:20.801Z,407.00
2023-06-24T01:00:20.843Z,406.00
2023-06-24T01:01:20.928Z,402.00
2023-06-24T01:02:20.994Z,403.00
2023-06-24T01:03:21.080Z,404.00
2023-06-24T01:04:21.139Z,404.00
2023-06-24T01:05:21.178Z,405.00
2023-06-24T01:06:21.444Z,409.00
2023-06-24T01:07:21.393Z,412.00
2023-06-24T01:08:21.321Z,411.00
2023-06-24T01:09:21.365Z,410.00
2023-06-24T01:10:21.426Z,412.00
2023-06-24T01:11:21.517Z,411.00
2023-06-24T01:12:21.563Z,410.00
2023-06-24T01:13:21.589Z,404.00
2023-06-24T01:14:21.691Z,402.00
2023-06-24T01:15:21.759Z,402.00
2023-06-24T01:16:21.783Z,405.00
2023-06-24T01:17:21.885Z,407.00
2023-06-24T01:18:21.828Z,409.00
2023-06-24T01:19:21.830Z,408.00
2023-06-24T01:20:21.840Z,408.00
2023-06-24T01:21:21.851Z,407.00
2023-06-24T01:22:21.856Z,406.00
2023-06-24T01:23:31.888Z,404.00
2023-06-24T01:24:34.947Z,403.00
2023-06-24T01:25:32.447Z,403.00
2023-06-24T01:26:32.011Z,403.00
2023-06-24T01:27:31.885Z,403.00
2023-06-24T01:28:21.871Z,403.00
2023-06-24T01:29:31.912Z,404.00
2023-06-24T01:30:31.904Z,404.00
2023-06-24T01:31:32.169Z,404.00
2023-06-24T01:32:31.956Z,403.00
2023-06-24T01:33:30.213Z,404.00
2023-06-24T01:34:21.832Z,406.00
2023-06-24T01:35:21.900Z,402.00
2023-06-24T01:36:21.913Z,403.00
2023-06-24T01:37:21.972Z,402.00
2023-06-24T01:38:22.029Z,404.00
2023-06-24T01:39:22.064Z,404.00
2023-06-24T01:40:22.095Z,403.00
2023-06-24T01:41:22.097Z,403.00
2023-06-24T01:42:22.134Z,402.00
2023-06-24T01:43:22.167Z,403.00
2023-06-24T01:44:22.119Z,401.00
2023-06-24T01:45:22.161Z,400.00
2023-06-24T01:46:22.223Z,400.00
2023-06-24T01:47:22.188Z,400.00
2023-06-24T01:48:22.180Z,399.00
2023-06-24T01:49:30.649Z,398.00
2023-06-24T01:50:22.281Z,398.00
2023-06-24T01:51:22.322Z,397.00
2023-06-24T01:52:22.345Z,399.00
2023-06-24T01:53:22.418Z,400.00
2023-06-24T01:54:22.428Z,401.00
2023-06-24T01:55:22.453Z,404.00
2023-06-24T01:56:22.521Z,404.00
2023-06-24T01:57:22.545Z,405.00
2023-06-24T01:58:22.545Z,406.00
2023-06-24T01:59:22.608Z,407.00
2023-06-24T02:00:22.619Z,404.00
2023-06-24T02:01:22.831Z,403.00
2023-06-24T02:02:22.733Z,401.00
2023-06-24T02:03:22.880Z,401.00
2023-06-24T02:04:22.686Z,402.00
2023-06-24T02:05:22.713Z,404.00
2023-06-24T02:06:22.758Z,402.00
2023-06-24T02:07:22.858Z,399.00
2023-06-24T02:08:22.742Z,399.00
2023-06-24T02:09:22.795Z,399.00
2023-06-24T02:10:22.777Z,398.00
2023-06-24T02:11:22.850Z,397.00
2023-06-24T02:12:22.869Z,398.00
2023-06-24T02:13:22.908Z,398.00
2023-06-24T02:14:22.934Z,397.00
2023-06-24T02:15:22.978Z,396.00
2023-06-24T02:16:23.053Z,395.00
2023-06-24T02:17:23.121Z,395.00
2023-06-24T02:18:23.078Z,398.00
2023-06-24T02:19:23.126Z,399.00
2023-06-24T02:20:23.160Z,402.00
2023-06-24T02:21:23.206Z,401.00
2023-06-24T02:22:23.195Z,401.00
2023-06-24T02:23:23.189Z,402.00
2023-06-24T02:24:23.262Z,399.00
2023-06-24T02:25:23.293Z,399.00
2023-06-24T02:26:23.312Z,401.00
2023-06-24T02:27:23.328Z,399.00
2023-06-24T02:28:23.338Z,400.00
2023-06-24T02:29:23.383Z,403.00
2023-06-24T02:30:24.159Z,406.00
2023-06-24T02:31:23.621Z,404.00
2023-06-24T02:32:23.485Z,406.00
2023-06-24T02:33:23.468Z,406.00
2023-06-24T02:34:23.519Z,405.00
2023-06-24T02:35:23.535Z,404.00
2023-06-24T02:36:23.573Z,404.00
2023-06-24T02:37:23.591Z,405.00
2023-06-24T02:38:23.624Z,403.00
2023-06-24T02:39:23.669Z,401.00
2023-06-24T02:40:23.682Z,400.00
2023-06-24T02:41:23.672Z,398.00
2023-06-24T02:42:23.743Z,401.00
2023-06-24T02:43:23.758Z,403.00
2023-06-24T02:44:23.800Z,399.00
2023-06-24T02:45:23.807Z,399.00
2023-06-24T02:46:23.873Z,401.00
2023-06-24T02:47:23.948Z,399.00
2023-06-24T02:48:23.924Z,400.00
2023-06-24T02:49:23.957Z,398.00
2023-06-24T02:50:23.985Z,397.00
2023-06-24T02:51:23.989Z,398.00
2023-06-24T02:52:24.059Z,400.00
2023-06-24T02:53:24.100Z,403.00
2023-06-24T02:54:24.108Z,403.00
2023-06-24T02:55:24.147Z,404.00
2023-06-24T02:56:24.656Z,405.00
2023-06-24T02:57:24.249Z,406.00
2023-06-24T02:58:24.309Z,406.00
2023-06-24T02:59:24.323Z,405.00
2023-06-24T03:00:24.382Z,404.00
2023-06-24T03:01:24.458Z,405.00
2023-06-24T03:02:24.517Z,405.00
2023-06-24T03:03:24.553Z,405.00
2023-06-24T03:04:24.564Z,405.00
2023-06-24T03:05:24.540Z,403.00
2023-06-24T03:06:24.569Z,403.00
2023-06-24T03:07:24.643Z,403.00
2023-06-24T03:08:24.651Z,400.00
2023-06-24T03:09:24.721Z,400.00
2023-06-24T03:10:24.746Z,399.00
2023-06-24T03:11:24.817Z,399.00
2023-06-24T03:12:24.844Z,395.00
2023-06-24T03:13:24.884Z,395.00
2023-06-24T03:14:24.921Z,397.00
2023-06-24T03:15:27.770Z,397.00
2023-06-24T03:16:24.974Z,394.00
2023-06-24T03:17:24.965Z,392.00
2023-06-24T03:18:24.922Z,393.00
2023-06-24T03:19:24.933Z,394.00
2023-06-24T03:20:24.963Z,397.00
2023-06-24T03:21:25.151Z,396.00
2023-06-24T03:22:24.910Z,394.00
2023-06-24T03:23:24.902Z,394.00
2023-06-24T03:24:24.886Z,395.00
2023-06-24T03:25:24.900Z,396.00
2023-06-24T03:26:24.902Z,399.00
2023-06-24T03:28:39.237Z,401.00
2023-06-24T03:29:39.222Z,401.00
2023-06-24T03:30:39.185Z,402.00
2023-06-24T03:31:39.234Z,404.00
2023-06-24T03:32:39.296Z,404.00
2023-06-24T03:33:39.202Z,400.00
2023-06-24T03:34:39.163Z,399.00
2023-06-24T03:35:39.214Z,401.00
2023-06-24T03:36:39.136Z,400.00
2023-06-24T03:37:39.157Z,401.00
2023-06-24T03:38:39.123Z,399.00
2023-06-24T03:39:39.140Z,400.00
2023-06-24T03:40:39.112Z,401.00
2023-06-24T03:41:39.091Z,404.00
2023-06-24T03:42:39.171Z,404.00
2023-06-24T03:43:39.182Z,405.00
2023-06-24T03:44:39.235Z,404.00
2023-06-24T03:45:39.330Z,406.00
2023-06-24T03:46:39.332Z,410.00
2023-06-24T03:47:39.383Z,410.00
2023-06-24T03:48:39.431Z,411.00
2023-06-24T03:49:39.464Z,410.00
2023-06-24T03:50:39.504Z,408.00
2023-06-24T03:51:39.576Z,411.00
2023-06-24T03:52:39.624Z,410.00
2023-06-24T03:53:39.712Z,410.00
2023-06-24T03:54:39.746Z,409.00
2023-06-24T03:55:39.795Z,410.00
2023-06-24T03:56:39.855Z,409.00
2023-06-24T03:57:39.897Z,412.00
2023-06-24T03:58:39.939Z,407.00
2023-06-24T03:59:40.035Z,408.00
2023-06-24T04:00:40.071Z,405.00
2023-06-24T04:01:40.232Z,406.00
2023-06-24T04:02:40.196Z,408.00
2023-06-24T04:03:40.247Z,408.00
2023-06-24T04:04:40.262Z,408.00
2023-06-24T04:05:40.326Z,410.00
2023-06-24T04:06:40.363Z,410.00
2023-06-24T04:07:40.412Z,412.00
2023-06-24T04:08:40.465Z,409.00
2023-06-24T04:09:40.503Z,411.00
2023-06-24T04:10:40.540Z,409.00
2023-06-24T04:11:40.926Z,408.00
2023-06-24T04:12:40.610Z,410.00
2023-06-24T04:13:40.701Z,411.00
2023-06-24T04:14:40.735Z,409.00
2023-06-24T04:15:40.747Z,408.00
2023-06-24T04:16:40.816Z,407.00
2023-06-24T04:17:40.924Z,407.00
2023-06-24T04:18:40.971Z,404.00
2023-06-24T04:19:41.013Z,404.00
2023-06-24T04:20:41.041Z,403.00
2023-06-24T04:21:41.085Z,401.00
2023-06-24T04:22:41.184Z,399.00
2023-06-24T04:23:41.214Z,399.00
2023-06-24T04:24:41.276Z,400.00
2023-06-24T04:25:41.287Z,401.00
2023-06-24T04:26:41.320Z,402.00
2023-06-24T04:27:41.379Z,401.00
2023-06-24T04:28:41.414Z,402.00
2023-06-24T04:29:41.521Z,401.00
2023-06-24T04:30:41.529Z,403.00
2023-06-24T04:31:41.660Z,403.00
2023-06-24T04:32:41.691Z,402.00
2023-06-24T04:33:41.705Z,402.00
2023-06-24T04:34:41.765Z,402.00
2023-06-24T04:35:41.831Z,404.00
2023-06-24T04:36:41.848Z,403.00
2023-06-24T04:37:41.950Z,403.00
2023-06-24T04:38:41.958Z,404.00
2023-06-24T04:39:42.040Z,407.00
2023-06-24T04:40:42.074Z,407.00
2023-06-24T04:41:42.159Z,409.00
2023-06-24T04:42:42.198Z,408.00
2023-06-24T04:43:42.241Z,407.00
2023-06-24T04:44:42.325Z,409.00
2023-06-24T04:45:42.349Z,405.00
2023-06-24T04:46:42.431Z,407.00
2023-06-24T04:47:42.524Z,407.00
2023-06-24T04:48:42.550Z,407.00
2023-06-24T04:49:42.578Z,403.00
2023-06-24T04:50:42.632Z,403.00
2023-06-24T04:51:42.662Z,403.00
2023-06-24T04:52:42.783Z,402.00
2023-06-24T04:53:42.808Z,404.00
2023-06-24T04:54:42.856Z,404.00
2023-06-24T04:55:42.863Z,405.00
2023-06-24T04:56:42.907Z,405.00
2023-06-24T04:57:42.982Z,404.00
2023-06-24T04:58:42.996Z,400.00
2023-06-24T04:59:43.065Z,400.00
2023-06-24T05:00:43.120Z,402.00
2023-06-24T05:01:43.198Z,402.00
2023-06-24T05:02:43.207Z,403.00
2023-06-24T05:03:43.225Z,402.00
2023-06-24T05:04:43.287Z,405.00
2023-06-24T05:05:43.686Z,402.00
2023-06-24T05:06:43.422Z,402.00
2023-06-24T05:07:43.439Z,404.00
2023-06-24T05:08:43.432Z,405.00
2023-06-24T05:09:43.493Z,404.00
2023-06-24T05:10:43.612Z,404.00
2023-06-24T05:11:43.601Z,405.00
2023-06-24T05:12:43.686Z,406.00
2023-06-24T05:13:43.731Z,404.00
2023-06-24T05:14:43.870Z,406.00
2023-06-24T05:15:43.833Z,406.00
2023-06-24T05:16:43.919Z,405.00
2023-06-24T05:17:44.040Z,405.00
2023-06-24T05:18:44.024Z,403.00
2023-06-24T05:19:44.093Z,403.00
2023-06-24T05:20:44.180Z,407.00
2023-06-24T05:21:44.208Z,411.00
2023-06-24T05:22:44.295Z,410.00
2023-06-24T05:23:44.321Z,413.00
2023-06-24T05:24:44.405Z,415.00
2023-06-24T05:25:44.466Z,418.00
2023-06-24T05:26:44.527Z,421.00
2023-06-24T05:27:44.511Z,419.00
2023-06-24T05:28:44.648Z,416.00
2023-06-24T05:29:44.701Z,419.00
2023-06-24T05:30:44.771Z,417.00
2023-06-24T05:31:44.816Z,417.00
2023-06-24T05:32:44.873Z,416.00
2023-06-24T05:33:44.938Z,417.00
2023-06-24T05:34:44.990Z,420.00
2023-06-24T05:35:45.060Z,421.00
2023-06-24T05:36:45.072Z,416.00
2023-06-24T05:37:45.070Z,415.00
2023-06-24T05:38:45.131Z,414.00
2023-06-24T05:39:45.175Z,412.00
2023-06-24T05:40:45.206Z,409.00
2023-06-24T05:41:45.282Z,407.00
2023-06-24T05:42:45.415Z,407.00
2023-06-24T05:43:45.417Z,408.00
2023-06-24T05:44:45.457Z,411.00
2023-06-24T05:45:45.516Z,410.00
2023-06-24T05:46:45.604Z,409.00
2023-06-24T05:47:45.656Z,409.00
2023-06-24T05:48:45.674Z,408.00
2023-06-24T05:49:45.701Z,409.00
2023-06-24T05:50:45.692Z,409.00
2023-06-24T05:51:45.989Z,407.00
2023-06-24T05:52:45.780Z,406.00
2023-06-24T05:53:45.794Z,405.00
2023-06-24T05:54:45.830Z,405.00
2023-06-24T05:55:45.844Z,407.00
2023-06-24T05:56:45.912Z,406.00
2023-06-24T05:57:45.913Z,408.00
2023-06-24T05:58:45.921Z,408.00
2023-06-24T05:59:45.992Z,410.00
2023-06-24T06:00:46.009Z,411.00
2023-06-24T06:01:46.050Z,410.00
2023-06-24T06:02:46.138Z,407.00
2023-06-24T06:03:46.153Z,408.00
2023-06-24T06:04:46.141Z,409.00
2023-06-24T06:05:46.198Z,406.00
2023-06-24T06:06:46.351Z,404.00
2023-06-24T06:07:46.309Z,405.00
2023-06-24T06:08:46.356Z,403.00
2023-06-24T06:09:46.376Z,400.00
2023-06-24T06:10:46.419Z,400.00
2023-06-24T06:11:46.504Z,402.00
2023-06-24T06:12:46.492Z,400.00
2023-06-24T06:13:46.593Z,401.00
2023-06-24T06:14:46.668Z,403.00
2023-06-24T06:15:46.708Z,400.00
2023-06-24T06:16:46.867Z,403.00
2023-06-24T06:17:46.787Z,403.00
2023-06-24T06:18:46.810Z,403.00
2023-06-24T06:19:47.181Z,403.00
2023-06-24T06:20:46.889Z,404.00
2023-06-24T06:21:46.978Z,406.00
2023-06-24T06:22:46.988Z,406.00
2023-06-24T06:23:47.015Z,404.00
2023-06-24T06:24:47.026Z,401.00
2023-06-24T06:25:49.173Z,404.00
2023-06-24T06:26:47.114Z,403.00
2023-06-24T06:27:47.168Z,403.00
2023-06-24T06:28:47.203Z,401.00
2023-06-24T06:29:47.210Z,401.00
2023-06-24T06:30:47.271Z,400.00
2023-06-24T06:31:47.323Z,400.00
2023-06-24T06:32:47.333Z,401.00
2023-06-24T06:33:47.326Z,401.00
2023-06-24T06:34:47.334Z,402.00
2023-06-24T06:35:47.345Z,402.00
2023-06-24T06:36:47.399Z,401.00
2023-06-24T06:37:47.432Z,400.00
2023-06-24T06:38:47.402Z,406.00
2023-06-24T06:39:47.435Z,406.00
2023-06-24T06:40:47.488Z,403.00
2023-06-24T06:41:47.492Z,403.00
2023-06-24T06:42:47.566Z,406.00
2023-06-24T06:43:47.589Z,406.00
2023-06-24T06:44:47.574Z,406.00
2023-06-24T06:45:47.670Z,406.00
2023-06-24T06:46:47.644Z,405.00
2023-06-24T06:47:47.753Z,405.00
2023-06-24T06:48:47.725Z,405.00
2023-06-24T06:49:47.764Z,401.00
2023-06-24T06:50:47.749Z,401.00
2023-06-24T06:51:47.831Z,400.00
2023-06-24T06:52:47.849Z,400.00
2023-06-24T06:53:47.837Z,402.00
2023-06-24T06:54:47.859Z,404.00
2023-06-24T06:55:47.827Z,403.00
2023-06-24T06:56:47.836Z,403.00
2023-06-24T06:57:47.844Z,403.00
2023-06-24T06:58:47.849Z,404.00
2023-06-24T06:59:47.857Z,406.00
2023-06-24T07:00:47.905Z,400.00
2023-06-24T07:01:48.007Z,397.00
2023-06-24T07:02:48.011Z,394.00
2023-06-24T07:03:48.014Z,393.00
2023-06-24T07:04:47.966Z,393.00
2023-06-24T07:05:47.972Z,394.00
2023-06-24T07:06:48.089Z,397.00
2023-06-24T07:07:48.067Z,394.00
2023-06-24T07:08:48.074Z,395.00
2023-06-24T07:09:48.159Z,390.00
2023-06-24T07:10:48.206Z,393.00
2023-06-24T07:11:48.248Z,395.00
2023-06-24T07:12:48.302Z,397.00
2023-06-24T07:13:48.387Z,399.00
2023-06-24T07:14:48.435Z,397.00
2023-06-24T07:15:48.459Z,393.00
2023-06-24T07:16:48.506Z,394.00
2023-06-24T07:17:48.607Z,396.00
2023-06-24T07:18:48.655Z,394.00
2023-06-24T07:19:48.701Z,392.00
2023-06-24T07:20:48.814Z,392.00
2023-06-24T07:21:48.828Z,396.00
2023-06-24T07:22:48.856Z,394.00
2023-06-24T07:23:48.978Z,393.00
2023-06-24T07:24:48.966Z,386.00
2023-06-24T07:25:49.014Z,390.00
2023-06-24T07:26:49.105Z,392.00
2023-06-24T07:27:49.142Z,389.00
2023-06-24T07:28:56.864Z,391.00
2023-06-24T07:29:50.209Z,392.00
2023-06-24T07:30:49.193Z,393.00
2023-06-24T07:31:49.257Z,391.00
2023-06-24T07:32:49.209Z,393.00
2023-06-24T07:33:49.135Z,397.00
2023-06-24T07:34:49.168Z,396.00
2023-06-24T07:35:49.164Z,398.00
2023-06-24T07:36:49.176Z,398.00
2023-06-24T07:37:49.144Z,398.00
2023-06-24T07:38:49.155Z,397.00
2023-06-24T07:39:49.152Z,396.00
2023-06-24T07:40:49.217Z,396.00
2023-06-24T07:41:49.235Z,396.00
2023-06-24T07:42:49.228Z,398.00
2023-06-24T07:43:49.246Z,397.00
2023-06-24T07:44:49.292Z,391.00
2023-06-24T07:45:49.298Z,392.00
2023-06-24T07:46:49.360Z,381.00
2023-06-24T07:47:49.457Z,389.00
2023-06-24T07:48:49.345Z,386.00
2023-06-24T07:49:49.413Z,383.00
2023-06-24T07:50:49.404Z,384.00
2023-06-24T07:51:49.490Z,384.00
2023-06-24T07:52:49.482Z,385.00
2023-06-24T07:53:49.541Z,386.00
2023-06-24T07:54:49.562Z,386.00
2023-06-24T07:55:49.605Z,385.00
2023-06-24T07:56:49.608Z,384.00
2023-06-24T07:57:49.607Z,387.00
2023-06-24T07:58:49.656Z,389.00
2023-06-24T07:59:49.681Z,392.00
2023-06-24T08:00:49.701Z,391.00
2023-06-24T08:01:49.725Z,388.00
2023-06-24T08:02:49.877Z,386.00
2023-06-24T08:03:49.783Z,387.00
2023-06-24T08:04:49.866Z,387.00
2023-06-24T08:05:49.949Z,391.00
2023-06-24T08:06:49.840Z,382.00
2023-06-24T08:07:49.772Z,384.00
2023-06-24T08:08:49.747Z,383.00
2023-06-24T08:09:49.743Z,386.00
2023-06-24T08:10:49.769Z,382.00
2023-06-24T08:11:49.806Z,384.00
2023-06-24T08:12:49.808Z,388.00
2023-06-24T08:13:49.826Z,389.00
2023-06-24T08:14:49.820Z,390.00
2023-06-24T08:15:49.845Z,391.00
2023-06-24T08:16:49.772Z,390.00
2023-06-24T08:17:49.822Z,391.00
2023-06-24T08:18:49.824Z,393.00
2023-06-24T08:19:49.785Z,394.00
2023-06-24T08:20:49.847Z,394.00
2023-06-24T08:21:49.824Z,394.00
2023-06-24T08:22:49.812Z,395.00
2023-06-24T08:23:49.839Z,394.00
2023-06-24T08:24:49.913Z,394.00
2023-06-24T08:25:50.095Z,395.00
2023-06-24T08:26:50.014Z,395.00
2023-06-24T08:27:50.036Z,398.00
2023-06-24T08:28:50.103Z,400.00
2023-06-24T08:29:50.179Z,398.00
2023-06-24T08:30:50.290Z,397.00
2023-06-24T08:31:50.296Z,395.00
2023-06-24T08:32:50.421Z,395.00
2023-06-24T08:33:50.421Z,396.00
2023-06-24T08:34:50.446Z,396.00
2023-06-24T08:35:50.514Z,394.00
2023-06-24T08:36:50.606Z,392.00
2023-06-24T08:37:50.623Z,391.00
2023-06-24T08:38:50.712Z,389.00
2023-06-24T08:39:50.745Z,391.00
2023-06-24T08:40:50.757Z,388.00
2023-06-24T08:41:50.842Z,387.00
2023-06-24T08:42:50.902Z,387.00
2023-06-24T08:43:50.877Z,388.00
2023-06-24T08:44:50.931Z,388.00
2023-06-24T08:45:50.981Z,386.00
2023-06-24T08:46:51.034Z,386.00
2023-06-24T08:47:51.099Z,377.00
2023-06-24T08:48:51.226Z,382.00
2023-06-24T08:49:51.103Z,382.00
2023-06-24T08:50:51.176Z,382.00
2023-06-24T08:51:51.186Z,383.00
2023-06-24T08:52:51.221Z,385.00
2023-06-24T08:53:51.263Z,370.00
2023-06-24T08:54:51.352Z,382.00
2023-06-24T08:55:51.346Z,380.00
2023-06-24T08:56:51.391Z,381.00
2023-06-24T08:57:51.418Z,385.00
2023-06-24T08:58:51.467Z,385.00
2023-06-24T08:59:51.507Z,381.00
2023-06-24T09:00:51.562Z,384.00
2023-06-24T09:01:52.103Z,385.00
2023-06-24T09:02:51.737Z,386.00
2023-06-24T09:03:51.625Z,380.00
2023-06-24T09:04:51.614Z,378.00
2023-06-24T09:05:51.671Z,374.00
2023-06-24T09:06:51.731Z,382.00
2023-06-24T09:07:51.737Z,388.00
2023-06-24T09:08:51.697Z,385.00
2023-06-24T09:09:51.701Z,385.00
2023-06-24T09:10:51.760Z,388.00
2023-06-24T09:11:51.772Z,384.00
2023-06-24T09:12:51.785Z,383.00
2023-06-24T09:13:51.800Z,384.00
2023-06-24T09:14:51.824Z,378.00
2023-06-24T09:15:51.839Z,384.00
2023-06-24T09:16:51.815Z,385.00
2023-06-24T09:17:51.904Z,387.00
2023-06-24T09:18:51.865Z,381.00
2023-06-24T09:19:51.859Z,383.00
2023-06-24T09:20:51.892Z,381.00
2023-06-24T09:21:51.970Z,382.00
2023-06-24T09:22:51.947Z,383.00
2023-06-24T09:23:51.883Z,383.00
2023-06-24T09:24:51.965Z,383.00
2023-06-24T09:25:51.924Z,384.00
2023-06-24T09:26:51.972Z,387.00
2023-06-24T09:27:51.947Z,386.00
2023-06-24T09:28:51.980Z,387.00
2023-06-24T09:29:52.027Z,388.00
2023-06-24T09:30:52.043Z,389.00
2023-06-24T09:31:52.094Z,389.00
2023-06-24T09:32:52.092Z,391.00
2023-06-24T09:33:52.163Z,384.00
2023-06-24T09:34:52.057Z,387.00
2023-06-24T09:35:52.089Z,390.00
2023-06-24T09:36:52.139Z,387.00
2023-06-24T09:37:52.098Z,379.00
2023-06-24T09:38:52.118Z,381.00
2023-06-24T09:39:52.159Z,385.00
2023-06-24T09:40:56.299Z,387.00
2023-06-24T09:41:53.135Z,384.00
2023-06-24T09:42:52.132Z,379.00
2023-06-24T09:43:52.114Z,379.00
2023-06-24T09:44:52.138Z,382.00
2023-06-24T09:45:52.132Z,384.00
2023-06-24T09:46:52.134Z,381.00
2023-06-24T09:47:52.180Z,382.00
2023-06-24T09:48:52.119Z,376.00
2023-06-24T09:49:52.073Z,378.00
2023-06-24T09:50:52.092Z,378.00
2023-06-24T09:51:52.078Z,379.00
2023-06-24T09:52:52.102Z,380.00
2023-06-24T09:53:52.078Z,379.00
2023-06-24T09:54:52.132Z,386.00
2023-06-24T09:55:52.109Z,382.00
2023-06-24T09:56:52.142Z,385.00
2023-06-24T09:57:52.197Z,386.00
2023-06-24T09:58:52.234Z,383.00
2023-06-24T09:59:52.304Z,381.00
2023-06-24T10:00:52.369Z,380.00
2023-06-24T10:01:52.485Z,377.00
2023-06-24T10:02:52.500Z,378.00
2023-06-24T10:03:52.520Z,377.00
2023-06-24T10:04:52.464Z,381.00
2023-06-24T10:05:52.544Z,381.00
2023-06-24T10:06:52.571Z,377.00
2023-06-24T10:07:52.503Z,380.00
2023-06-24T10:08:52.569Z,390.00
2023-06-24T10:09:52.549Z,382.00
2023-06-24T10:10:52.540Z,378.00
2023-06-24T10:11:52.546Z,381.00
2023-06-24T10:12:52.550Z,382.00
2023-06-24T10:13:52.559Z,381.00
2023-06-24T10:14:52.559Z,381.00
2023-06-24T10:15:52.611Z,382.00
2023-06-24T10:16:52.665Z,383.00
2023-06-24T10:17:58.282Z,389.00
2023-06-24T10:18:53.686Z,396.00
2023-06-24T10:19:52.715Z,386.00
2023-06-24T10:20:52.698Z,390.00
2023-06-24T10:21:52.665Z,386.00
2023-06-24T10:22:52.671Z,384.00
2023-06-24T10:23:52.679Z,386.00
2023-06-24T10:24:52.626Z,380.00
2023-06-24T10:25:52.651Z,380.00
2023-06-24T10:26:52.627Z,383.00
2023-06-24T10:27:52.635Z,383.00
2023-06-24T10:28:52.657Z,381.00
2023-06-24T10:29:52.619Z,389.00
2023-06-24T10:30:52.648Z,386.00
2023-06-24T10:31:53.077Z,388.00
2023-06-24T10:32:52.628Z,385.00
2023-06-24T10:33:52.602Z,389.00
2023-06-24T10:34:52.654Z,391.00
2023-06-24T10:35:52.592Z,390.00
2023-06-24T10:36:53.069Z,390.00
2023-06-24T10:37:52.625Z,389.00
2023-06-24T10:38:52.612Z,394.00
2023-06-24T10:39:52.646Z,386.00
2023-06-24T10:40:52.656Z,387.00
2023-06-24T10:41:52.693Z,389.00
2023-06-24T10:42:52.642Z,384.00
2023-06-24T10:43:52.672Z,388.00
2023-06-24T10:44:52.718Z,390.00
2023-06-24T10:45:52.717Z,391.00
2023-06-24T10:46:52.714Z,390.00
2023-06-24T10:47:52.732Z,386.00
2023-06-24T10:48:52.710Z,386.00
2023-06-24T10:49:52.747Z,388.00
2023-06-24T10:50:52.754Z,394.00
2023-06-24T10:51:52.761Z,391.00
2023-06-24T10:52:52.798Z,388.00
2023-06-24T10:53:52.780Z,394.00
2023-06-24T10:54:52.782Z,394.00
2023-06-24T10:55:52.791Z,392.00
2023-06-24T10:56:52.798Z,383.00
2023-06-24T10:57:52.836Z,385.00
2023-06-24T10:58:52.853Z,386.00
2023-06-24T10:59:52.884Z,396.00
2023-06-24T11:00:52.992Z,388.00
2023-06-24T11:01:52.904Z,391.00
2023-06-24T11:02:53.017Z,402.00
2023-06-24T11:03:52.882Z,389.00
2023-06-24T11:04:52.892Z,397.00
2023-06-24T11:05:52.914Z,396.00
2023-06-24T11:06:52.924Z,397.00
2023-06-24T11:07:52.915Z,400.00
2023-06-24T11:08:52.932Z,398.00
2023-06-24T11:09:52.959Z,398.00
2023-06-24T11:10:53.011Z,395.00
2023-06-24T11:11:53.137Z,394.00
2023-06-24T11:12:53.126Z,392.00
2023-06-24T11:13:53.113Z,390.00
2023-06-24T11:14:53.142Z,389.00
2023-06-24T11:15:53.090Z,396.00
2023-06-24T11:16:53.132Z,380.00
2023-06-24T11:17:53.185Z,385.00
2023-06-24T11:18:53.189Z,383.00
2023-06-24T11:19:53.207Z,388.00
2023-06-24T11:20:53.199Z,388.00
2023-06-24T11:21:53.277Z,388.00
2023-06-24T11:22:53.307Z,383.00
2023-06-24T11:23:53.312Z,381.00
2023-06-24T11:24:53.284Z,380.00
2023-06-24T11:25:53.352Z,383.00
2023-06-24T11:26:53.417Z,380.00
2023-06-24T11:27:53.449Z,381.00
2023-06-24T11:28:53.535Z,382.00
2023-06-24T11:29:53.535Z,386.00
2023-06-24T11:30:53.597Z,376.00
2023-06-24T11:31:53.653Z,373.00
2023-06-24T11:32:53.699Z,375.00
2023-06-24T11:33:53.683Z,377.00
2023-06-24T11:34:53.687Z,386.00
2023-06-24T11:35:53.707Z,379.00
2023-06-24T11:36:54.104Z,372.00
2023-06-24T11:37:53.833Z,373.00
2023-06-24T11:38:53.857Z,381.00
2023-06-24T11:39:53.915Z,381.00
2023-06-24T11:40:53.944Z,384.00
2023-06-24T11:41:54.086Z,384.00
2023-06-24T11:42:53.984Z,387.00
2023-06-24T11:43:54.011Z,385.00
2023-06-24T11:44:54.009Z,387.00
2023-06-24T11:45:54.035Z,384.00
2023-06-24T11:46:54.082Z,392.00
2023-06-24T11:47:54.132Z,383.00
2023-06-24T11:48:54.086Z,382.00
2023-06-24T11:49:54.101Z,386.00
2023-06-24T11:50:54.092Z,383.00
2023-06-24T11:51:54.142Z,382.00
2023-06-24T11:52:54.108Z,385.00
2023-06-24T11:53:54.152Z,382.00
2023-06-24T11:54:54.165Z,382.00
2023-06-24T11:55:54.187Z,389.00
2023-06-24T11:56:54.246Z,384.00
2023-06-24T11:57:54.336Z,390.00
2023-06-24T11:58:54.289Z,383.00
2023-06-24T11:59:54.361Z,388.00
2023-06-24T12:00:54.378Z,391.00
2023-06-24T12:01:54.375Z,389.00
2023-06-24T12:02:54.407Z,381.00
2023-06-24T12:03:54.630Z,382.00
2023-06-24T12:04:54.425Z,385.00
2023-06-24T12:05:54.395Z,380.00
2023-06-24T12:06:54.508Z,383.00
2023-06-24T12:08:03.620Z,383.00
2023-06-24T12:10:14.207Z,370.00
2023-06-24T12:11:24.162Z,384.00
2023-06-24T12:12:14.212Z,385.00
2023-06-24T12:13:14.240Z,391.00
2023-06-24T12:14:14.173Z,391.00
2023-06-24T12:15:14.188Z,394.00
2023-06-24T12:16:14.185Z,399.00
2023-06-24T12:17:14.226Z,402.00
2023-06-24T12:18:14.143Z,398.00
2023-06-24T12:19:14.157Z,397.00
2023-06-24T12:20:14.129Z,387.00
2023-06-24T12:21:14.184Z,387.00
2023-06-24T12:22:14.111Z,390.00
2023-06-24T12:23:14.130Z,386.00
2023-06-24T12:24:14.124Z,384.00
2023-06-24T12:25:14.118Z,384.00
2023-06-24T12:26:14.110Z,383.00
2023-06-24T12:27:14.083Z,386.00
2023-06-24T12:28:14.100Z,385.00
2023-06-24T12:29:14.155Z,384.00
2023-06-24T12:30:14.053Z,388.00
2023-06-24T12:31:14.083Z,386.00